Time;durP1;ratioP1;P1;durP2;ratioP2;P2;SDS_P1;SDS_P2;PMS_P1;PMS_P2;Temp;Humidity;BMP_temperature;BMP_pressure;BME280_temperature;BME280_humidity;BME280_pressure;Samples;Min_cycle;Max_cycle;Signal;HPM_P1;HPM_P2
2023/12/02 00:01:51;;;;;;;;;;;-0.80;99.90;;;;;;5148173;27;19924;-83
2023/12/02 00:04:16;;;;;;;;;;;-0.80;99.90;;;;;;5114783;28;20358;-83
2023/12/02 00:06:42;;;;;;;;;;;-0.80;99.90;;;;;;5105491;28;19943;-83
2023/12/02 00:09:08;;;;;;;;;;;-0.80;99.90;;;;;;5106976;28;19924;-83
2023/12/02 00:11:34;;;;;;;;;;;-0.80;99.90;;;;;;5114829;28;19923;-83
2023/12/02 00:14:00;;;;;;;;;;;-0.80;99.90;;;;;;5114043;27;20278;-87
2023/12/02 00:16:25;;;;;;;;;;;-0.80;99.90;;;;;;5119355;27;19923;-83
2023/12/02 00:18:51;;;;;;;;;;;-0.80;99.90;;;;;;5118120;27;19924;-83
2023/12/02 00:21:16;;;;;;;;;;;-0.80;99.90;;;;;;5104775;27;20002;-83
2023/12/02 00:23:42;;;;;;;;;;;-0.80;99.90;;;;;;5116540;27;19988;-82
2023/12/02 00:26:08;;;;;;;;;;;-0.70;99.90;;;;;;5111251;27;19924;-82
2023/12/02 00:28:34;;;;;;;;;;;-0.60;99.90;;;;;;5116202;27;20025;-86
2023/12/02 00:30:59;;;;;;;;;;;-0.70;99.90;;;;;;5110859;27;19923;-86
2023/12/02 00:33:25;;;;;;;;;;;-0.60;99.90;;;;;;5119935;27;19930;-87
2023/12/02 00:35:50;;;;;;;;;;;-0.60;99.90;;;;;;5104703;27;19978;-82
2023/12/02 00:38:16;;;;;;;;;;;-0.60;99.90;;;;;;5108699;27;20336;-82
2023/12/02 00:40:42;;;;;;;;;;;-0.60;99.90;;;;;;5110557;27;19924;-83
2023/12/02 00:43:07;;;;;;;;;;;-0.60;99.90;;;;;;5119399;27;20393;-82
2023/12/02 00:45:33;;;;;;;;;;;-0.60;99.90;;;;;;5121567;27;19939;-82
2023/12/02 00:47:58;;;;;;;;;;;-0.50;99.90;;;;;;5116492;27;20037;-82
2023/12/02 00:50:24;;;;;;;;;;;-0.50;99.90;;;;;;5117374;27;19924;-82
2023/12/02 00:52:49;;;;;;;;;;;-0.50;99.90;;;;;;5103938;27;19931;-82
2023/12/02 00:55:15;;;;;;;;;;;-0.50;99.90;;;;;;5112598;27;19938;-82
2023/12/02 00:57:41;;;;;;;;;;;-0.50;99.90;;;;;;5105880;27;19927;-82
2023/12/02 01:00:08;;;;;;;;;;;-0.50;99.90;;;;;;5105028;27;20025;-82
2023/12/02 01:02:33;;;;;;;;;;;-0.50;99.90;;;;;;5091723;27;19990;-82
2023/12/02 01:04:59;;;;;;;;;;;-0.40;99.90;;;;;;5109874;27;20366;-83
2023/12/02 01:07:24;;;;;;;;;;;-0.50;99.90;;;;;;5110737;27;19924;-82
2023/12/02 01:09:50;;;;;;;;;;;-0.60;99.90;;;;;;5114916;27;20335;-82
2023/12/02 01:12:16;;;;;;;;;;;-0.70;99.90;;;;;;5105877;27;19958;-82
2023/12/02 01:14:41;;;;;;;;;;;-0.70;99.90;;;;;;5111573;27;19924;-82
2023/12/02 01:17:07;;;;;;;;;;;-0.60;99.90;;;;;;5109091;27;19930;-83
2023/12/02 01:19:32;;;;;;;;;;;-0.60;99.90;;;;;;5137846;27;19932;-82
2023/12/02 01:21:58;;;;;;;;;;;-0.60;99.90;;;;;;5111542;28;19969;-82
2023/12/02 01:24:23;;;;;;;;;;;-0.70;99.90;;;;;;5109276;27;19935;-88
2023/12/02 01:26:49;;;;;;;;;;;-0.60;99.90;;;;;;5111054;27;19992;-82
2023/12/02 01:29:15;;;;;;;;;;;-0.70;99.90;;;;;;5103257;28;19924;-82
2023/12/02 01:31:40;;;;;;;;;;;-0.70;99.90;;;;;;5109418;27;19924;-82
2023/12/02 01:34:06;;;;;;;;;;;-0.60;99.90;;;;;;5104160;27;19928;-82
2023/12/02 01:36:31;;;;;;;;;;;-0.70;99.90;;;;;;5110107;27;19924;-85
2023/12/02 01:38:57;;;;;;;;;;;-0.70;99.90;;;;;;5113600;28;19931;-82
2023/12/02 01:41:23;;;;;;;;;;;-0.70;99.90;;;;;;5099332;28;19928;-82
2023/12/02 01:43:49;;;;;;;;;;;-0.70;99.90;;;;;;5113211;28;19931;-82
2023/12/02 01:46:17;;;;;;;;;;;-0.70;99.90;;;;;;5115011;28;19950;-81
2023/12/02 01:48:43;;;;;;;;;;;-0.70;99.90;;;;;;5114988;28;19927;-81
2023/12/02 01:51:08;;;;;;;;;;;-0.70;99.90;;;;;;5114883;28;20019;-82
2023/12/02 01:53:34;;;;;;;;;;;-0.80;99.90;;;;;;5111288;28;19947;-83
2023/12/02 01:55:59;;;;;;;;;;;-0.80;99.90;;;;;;5111736;28;19978;-82
2023/12/02 01:58:25;;;;;;;;;;;-0.80;99.90;;;;;;5108861;28;19924;-82
2023/12/02 02:00:51;;;;;;;;;;;-0.60;99.90;;;;;;5106200;28;19924;-82
2023/12/02 02:03:16;;;;;;;;;;;-0.70;99.90;;;;;;5093343;28;19928;-82
2023/12/02 02:05:43;;;;;;;;;;;-0.70;99.90;;;;;;5098904;28;20423;-82
2023/12/02 02:08:08;;;;;;;;;;;-0.70;99.90;;;;;;5105212;28;19927;-85
2023/12/02 02:10:34;;;;;;;;;;;-0.60;99.90;;;;;;5100144;28;19932;-83
2023/12/02 02:12:59;;;;;;;;;;;-0.60;99.90;;;;;;5096358;28;19932;-82
2023/12/02 02:15:25;;;;;;;;;;;-0.60;99.90;;;;;;5108163;27;19970;-82
2023/12/02 02:17:50;;;;;;;;;;;-0.70;99.90;;;;;;5102948;28;20358;-84
2023/12/02 02:20:16;;;;;;;;;;;-0.60;99.90;;;;;;5105925;28;19966;-83
2023/12/02 02:22:42;;;;;;;;;;;-0.70;99.90;;;;;;5113513;28;19924;-82
2023/12/02 02:25:07;;;;;;;;;;;-0.60;99.90;;;;;;5104941;28;20485;-82
2023/12/02 02:27:33;;;;;;;;;;;-0.70;99.90;;;;;;5131666;27;19928;-82
2023/12/02 02:29:58;;;;;;;;;;;-0.70;99.90;;;;;;5101743;28;19931;-82
2023/12/02 02:32:24;;;;;;;;;;;-0.70;99.90;;;;;;5103982;28;19928;-85
2023/12/02 02:34:49;;;;;;;;;;;-0.70;99.90;;;;;;5109563;28;19990;-82
2023/12/02 02:37:15;;;;;;;;;;;-0.70;99.90;;;;;;5102422;28;19924;-82
2023/12/02 02:39:41;;;;;;;;;;;-0.60;99.90;;;;;;5112930;28;19928;-87
2023/12/02 02:42:06;;;;;;;;;;;-0.50;99.90;;;;;;5109137;28;19924;-83
2023/12/02 02:44:32;;;;;;;;;;;-0.60;99.90;;;;;;5111362;28;20427;-82
2023/12/02 02:46:58;;;;;;;;;;;-0.60;99.90;;;;;;5089536;28;20019;-81
2023/12/02 02:49:23;;;;;;;;;;;-0.70;99.90;;;;;;5113438;28;20023;-82
2023/12/02 02:51:49;;;;;;;;;;;-0.70;99.90;;;;;;5105217;28;19924;-86
2023/12/02 02:54:14;;;;;;;;;;;-0.70;99.90;;;;;;5100347;28;19924;-82
2023/12/02 02:56:40;;;;;;;;;;;-0.70;99.90;;;;;;5107508;28;19923;-82
2023/12/02 02:59:06;;;;;;;;;;;-0.60;99.90;;;;;;5111860;27;20007;-82
2023/12/02 03:01:31;;;;;;;;;;;-0.50;99.90;;;;;;5115120;27;19924;-84
2023/12/02 03:03:57;;;;;;;;;;;-0.60;99.90;;;;;;5106412;27;19977;-82
2023/12/02 03:06:24;;;;;;;;;;;-0.60;99.90;;;;;;5116090;27;19935;-82
2023/12/02 03:08:49;;;;;;;;;;;-0.60;99.90;;;;;;5116005;27;19966;-82
2023/12/02 03:11:15;;;;;;;;;;;-0.60;99.90;;;;;;5109771;27;20009;-86
2023/12/02 03:13:41;;;;;;;;;;;-0.60;99.90;;;;;;5111021;28;19923;-82
2023/12/02 03:16:06;;;;;;;;;;;-0.60;99.90;;;;;;5110915;28;20290;-82
2023/12/02 03:18:32;;;;;;;;;;;-0.60;99.90;;;;;;5103819;27;19924;-82
2023/12/02 03:20:57;;;;;;;;;;;-0.60;99.90;;;;;;5104233;27;19947;-82
2023/12/02 03:23:23;;;;;;;;;;;-0.60;99.90;;;;;;5116030;27;19951;-82
2023/12/02 03:25:49;;;;;;;;;;;-0.70;99.90;;;;;;5113718;28;19976;-82
2023/12/02 03:28:14;;;;;;;;;;;-0.60;99.90;;;;;;5107776;27;21664;-83
2023/12/02 03:30:40;;;;;;;;;;;-0.60;99.90;;;;;;5113822;27;19980;-83
2023/12/02 03:33:06;;;;;;;;;;;-0.60;99.90;;;;;;5110756;27;20007;-86
2023/12/02 03:35:31;;;;;;;;;;;-0.60;99.90;;;;;;5114560;27;19924;-82
2023/12/02 03:37:57;;;;;;;;;;;-0.60;99.90;;;;;;5107984;27;20290;-82
2023/12/02 03:40:22;;;;;;;;;;;-0.50;99.90;;;;;;5134731;27;19973;-84
2023/12/02 03:42:48;;;;;;;;;;;-0.60;99.90;;;;;;5111051;27;19923;-86
2023/12/02 03:45:13;;;;;;;;;;;-0.60;99.90;;;;;;5107635;27;20387;-83
2023/12/02 03:47:39;;;;;;;;;;;-0.60;99.90;;;;;;5092720;28;19923;-83
2023/12/02 03:50:05;;;;;;;;;;;-0.70;99.90;;;;;;5111129;27;19947;-83
2023/12/02 03:52:30;;;;;;;;;;;-0.60;99.90;;;;;;5108406;27;19924;-82
2023/12/02 03:54:56;;;;;;;;;;;-0.70;99.90;;;;;;5111874;27;19950;-82
2023/12/02 03:57:21;;;;;;;;;;;-0.70;99.90;;;;;;5125952;27;19927;-81
2023/12/02 03:59:47;;;;;;;;;;;-0.70;99.90;;;;;;5115449;28;20413;-83
2023/12/02 04:02:13;;;;;;;;;;;-0.70;99.90;;;;;;5100102;28;19977;-90
2023/12/02 04:04:38;;;;;;;;;;;-0.70;99.90;;;;;;5103126;28;19924;-83
2023/12/02 04:07:04;;;;;;;;;;;-0.70;99.90;;;;;;5115653;28;20294;-82
2023/12/02 04:09:30;;;;;;;;;;;-0.80;99.90;;;;;;5114698;28;19977;-83
2023/12/02 04:11:55;;;;;;;;;;;-0.80;99.90;;;;;;5119033;28;19928;-85
2023/12/02 04:14:21;;;;;;;;;;;-0.70;99.90;;;;;;5117963;27;19923;-82
2023/12/02 04:16:46;;;;;;;;;;;-0.70;99.90;;;;;;5112896;27;20309;-88
2023/12/02 04:19:12;;;;;;;;;;;-0.70;99.90;;;;;;5100402;28;19928;-83
2023/12/02 04:21:44;;;;;;;;;;;-0.80;99.90;;;;;;5110197;27;20252;-82
2023/12/02 04:24:10;;;;;;;;;;;-0.80;99.90;;;;;;5097701;27;20027;-87
2023/12/02 04:26:36;;;;;;;;;;;-0.80;99.90;;;;;;5108843;27;20414;-83
2023/12/02 04:29:01;;;;;;;;;;;-0.70;99.90;;;;;;5103403;28;19927;-82
2023/12/02 04:31:27;;;;;;;;;;;-0.80;99.90;;;;;;5111704;27;19924;-83
2023/12/02 04:33:53;;;;;;;;;;;-0.80;99.90;;;;;;5106176;27;19927;-83
2023/12/02 04:36:19;;;;;;;;;;;-0.80;99.90;;;;;;5103951;27;20167;-82
2023/12/02 04:38:45;;;;;;;;;;;-0.80;99.90;;;;;;5110358;27;19924;-82
2023/12/02 04:41:10;;;;;;;;;;;-0.80;99.90;;;;;;5112740;27;19930;-82
2023/12/02 04:43:36;;;;;;;;;;;-0.80;99.90;;;;;;5112808;27;19967;-82
2023/12/02 04:46:02;;;;;;;;;;;-0.80;99.90;;;;;;5106828;27;19949;-86
2023/12/02 04:48:27;;;;;;;;;;;-0.80;99.90;;;;;;5111051;28;19923;-82
2023/12/02 04:50:53;;;;;;;;;;;-0.80;99.90;;;;;;5108997;27;19935;-82
2023/12/02 04:53:19;;;;;;;;;;;-0.80;99.90;;;;;;5086023;27;19924;-82
2023/12/02 04:55:46;;;;;;;;;;;-0.80;99.90;;;;;;5107243;27;19939;-87
2023/12/02 04:58:11;;;;;;;;;;;-0.70;99.90;;;;;;5107081;27;19931;-83
2023/12/02 05:00:37;;;;;;;;;;;-0.80;99.90;;;;;;5090686;28;19924;-83
2023/12/02 05:03:03;;;;;;;;;;;-0.80;99.90;;;;;;5109898;27;19971;-82
2023/12/02 05:05:29;;;;;;;;;;;-0.80;99.90;;;;;;5110099;27;19955;-82
2023/12/02 05:07:54;;;;;;;;;;;-0.80;99.90;;;;;;5106124;27;19939;-83
2023/12/02 05:10:20;;;;;;;;;;;-0.80;99.90;;;;;;5113257;27;20255;-82
2023/12/02 05:12:45;;;;;;;;;;;-0.80;99.90;;;;;;5111346;27;19924;-83
2023/12/02 05:15:11;;;;;;;;;;;-0.80;99.90;;;;;;5114337;27;19963;-82
2023/12/02 05:17:37;;;;;;;;;;;-0.70;99.90;;;;;;5113874;28;19976;-82
2023/12/02 05:20:02;;;;;;;;;;;-0.70;99.90;;;;;;5112388;28;19924;-83
2023/12/02 05:22:28;;;;;;;;;;;-0.70;99.90;;;;;;5098517;28;19928;-83
2023/12/02 05:24:54;;;;;;;;;;;-0.70;99.90;;;;;;5112906;28;20502;-82
2023/12/02 05:27:19;;;;;;;;;;;-0.70;99.90;;;;;;5098179;28;19931;-85
2023/12/02 05:29:45;;;;;;;;;;;-0.70;99.90;;;;;;5105285;28;19924;-82
2023/12/02 05:32:11;;;;;;;;;;;-0.70;99.90;;;;;;5113859;28;20370;-82
2023/12/02 05:34:36;;;;;;;;;;;-0.70;99.90;;;;;;5107174;28;19923;-82
2023/12/02 05:37:02;;;;;;;;;;;-0.60;99.90;;;;;;5112769;28;19931;-83
2023/12/02 05:39:28;;;;;;;;;;;-0.60;99.90;;;;;;5109802;28;20411;-82
2023/12/02 05:41:53;;;;;;;;;;;-0.60;99.90;;;;;;5116821;27;19932;-83
2023/12/02 05:44:19;;;;;;;;;;;-0.70;99.90;;;;;;5114583;27;19927;-82
2023/12/02 05:46:45;;;;;;;;;;;-0.60;99.90;;;;;;5106690;28;19977;-82
2023/12/02 05:49:10;;;;;;;;;;;-0.60;99.90;;;;;;5105885;28;19928;-88
2023/12/02 05:51:39;;;;;;;;;;;-0.60;99.90;;;;;;5109051;28;19938;-82
2023/12/02 05:54:08;;;;;;;;;;;-0.60;99.90;;;;;;5105115;28;19928;-82
2023/12/02 05:56:34;;;;;;;;;;;-0.60;99.90;;;;;;5113447;28;19953;-82
2023/12/02 05:58:59;;;;;;;;;;;-0.60;99.90;;;;;;5112340;28;19924;-82
2023/12/02 06:01:25;;;;;;;;;;;-0.60;99.90;;;;;;5111262;28;19924;-82
2023/12/02 06:03:50;;;;;;;;;;;-0.70;99.90;;;;;;5093433;28;19963;-82
2023/12/02 06:06:16;;;;;;;;;;;-0.70;99.90;;;;;;5112418;28;20323;-82
2023/12/02 06:08:41;;;;;;;;;;;-0.70;99.90;;;;;;5120541;28;19928;-82
2023/12/02 06:11:07;;;;;;;;;;;-0.70;99.90;;;;;;5109376;28;19923;-82
2023/12/02 06:13:33;;;;;;;;;;;-0.80;99.90;;;;;;5099774;28;20014;-82
2023/12/02 06:15:59;;;;;;;;;;;-0.70;99.90;;;;;;5112886;28;19977;-83
2023/12/02 06:18:24;;;;;;;;;;;-0.80;99.90;;;;;;5107772;28;20015;-83
2023/12/02 06:20:50;;;;;;;;;;;-0.70;99.90;;;;;;5089866;28;19962;-82
2023/12/02 06:23:15;;;;;;;;;;;-0.80;99.90;;;;;;5110012;28;19931;-83
2023/12/02 06:25:41;;;;;;;;;;;-0.70;99.90;;;;;;5110944;28;19930;-83
2023/12/02 06:28:06;;;;;;;;;;;-0.80;99.90;;;;;;5102910;28;19931;-83
2023/12/02 06:30:32;;;;;;;;;;;-0.80;99.90;;;;;;5109661;28;19939;-82
2023/12/02 06:32:58;;;;;;;;;;;-0.70;99.90;;;;;;5106267;28;20317;-82
2023/12/02 06:35:23;;;;;;;;;;;-0.80;99.90;;;;;;5114320;27;19938;-82
2023/12/02 06:37:49;;;;;;;;;;;-0.80;99.90;;;;;;5113274;27;19931;-82
2023/12/02 06:40:14;;;;;;;;;;;-0.80;99.90;;;;;;5102854;28;19964;-82
2023/12/02 06:42:40;;;;;;;;;;;-0.80;99.90;;;;;;5118203;27;20381;-85
2023/12/02 06:45:06;;;;;;;;;;;-0.80;99.90;;;;;;5113358;27;19927;-83
2023/12/02 06:47:32;;;;;;;;;;;-0.90;99.90;;;;;;5112950;27;19923;-82
2023/12/02 06:50:00;;;;;;;;;;;-0.90;99.90;;;;;;5115090;27;20615;-83
2023/12/02 06:52:26;;;;;;;;;;;-1.00;99.90;;;;;;5105666;27;19973;-86
2023/12/02 06:54:51;;;;;;;;;;;-0.90;99.90;;;;;;5106527;27;19924;-83
2023/12/02 06:57:17;;;;;;;;;;;-0.90;99.90;;;;;;5093555;28;20278;-84
2023/12/02 06:59:48;;;;;;;;;;;-0.90;99.90;;;;;;5117464;27;19990;-82
2023/12/02 07:02:14;;;;;;;;;;;-0.90;99.90;;;;;;5108274;27;20358;-83
2023/12/02 07:04:39;;;;;;;;;;;-1.00;99.90;;;;;;5109378;27;19978;-82
2023/12/02 07:07:05;;;;;;;;;;;-1.00;99.90;;;;;;5113833;27;20022;-82
2023/12/02 07:09:30;;;;;;;;;;;-1.00;99.90;;;;;;5115351;27;19931;-85
2023/12/02 07:11:57;;;;;;;;;;;-1.00;99.90;;;;;;5106355;27;20382;-83
2023/12/02 07:14:22;;;;;;;;;;;-1.00;99.90;;;;;;5108687;27;19928;-82
2023/12/02 07:16:48;;;;;;;;;;;-1.00;99.90;;;;;;5110026;27;20354;-82
2023/12/02 07:19:13;;;;;;;;;;;-1.00;99.90;;;;;;5110321;27;19966;-82
2023/12/02 07:21:39;;;;;;;;;;;-1.00;99.90;;;;;;5104338;27;19928;-82
2023/12/02 07:24:05;;;;;;;;;;;-1.00;99.90;;;;;;5102743;28;20282;-83
2023/12/02 07:26:30;;;;;;;;;;;-1.00;99.90;;;;;;5116509;27;19927;-83
2023/12/02 07:28:56;;;;;;;;;;;-1.00;99.90;;;;;;5115362;27;20324;-83
2023/12/02 07:31:22;;;;;;;;;;;-1.00;99.90;;;;;;5119021;27;19975;-83
2023/12/02 07:33:47;;;;;;;;;;;-0.90;99.90;;;;;;5118269;27;19927;-83
2023/12/02 07:36:13;;;;;;;;;;;-1.00;99.90;;;;;;5123111;27;19927;-84
2023/12/02 07:38:41;;;;;;;;;;;-1.00;99.90;;;;;;5125204;27;19934;-83
2023/12/02 07:41:10;;;;;;;;;;;-1.00;99.90;;;;;;5117232;27;19932;-88
2023/12/02 07:43:36;;;;;;;;;;;-1.00;99.90;;;;;;5121241;27;19930;-82
2023/12/02 07:46:01;;;;;;;;;;;-0.90;99.90;;;;;;5117449;27;19924;-84
2023/12/02 07:48:27;;;;;;;;;;;-0.90;99.90;;;;;;5117353;27;20014;-83
2023/12/02 07:50:52;;;;;;;;;;;-0.90;99.90;;;;;;5115055;27;20361;-83
2023/12/02 07:53:18;;;;;;;;;;;-0.90;99.90;;;;;;5114997;28;19924;-83
2023/12/02 07:55:44;;;;;;;;;;;-0.90;99.90;;;;;;5106722;28;19993;-83
2023/12/02 07:58:09;;;;;;;;;;;-0.90;99.90;;;;;;5143071;27;19930;-83
2023/12/02 08:00:35;;;;;;;;;;;-0.90;99.90;;;;;;5115144;28;19924;-83
2023/12/02 08:03:00;;;;;;;;;;;-0.80;99.90;;;;;;5114175;27;19924;-83
2023/12/02 08:05:26;;;;;;;;;;;-0.90;99.90;;;;;;5113615;27;19923;-83
2023/12/02 08:07:51;;;;;;;;;;;-0.90;99.90;;;;;;5109116;27;19928;-85
2023/12/02 08:10:17;;;;;;;;;;;-0.90;99.90;;;;;;5110323;27;19927;-83
2023/12/02 08:12:43;;;;;;;;;;;-0.80;99.90;;;;;;5119350;27;19932;-86
2023/12/02 08:15:09;;;;;;;;;;;-0.80;99.90;;;;;;5118844;27;19930;-82
2023/12/02 08:17:35;;;;;;;;;;;-0.80;99.90;;;;;;5113946;27;19928;-84
2023/12/02 08:20:01;;;;;;;;;;;-0.80;99.90;;;;;;5112140;28;19924;-83
2023/12/02 08:22:27;;;;;;;;;;;-0.80;99.90;;;;;;5113827;28;20305;-83
2023/12/02 08:24:52;;;;;;;;;;;-0.80;99.90;;;;;;5114598;28;19928;-83
2023/12/02 08:27:18;;;;;;;;;;;-0.70;99.90;;;;;;5105561;28;19932;-84
2023/12/02 08:29:44;;;;;;;;;;;-0.70;99.90;;;;;;5107584;27;19923;-84
2023/12/02 08:32:09;;;;;;;;;;;-0.70;99.90;;;;;;5113716;27;19924;-82
2023/12/02 08:34:35;;;;;;;;;;;-0.60;99.90;;;;;;5117349;27;20747;-86
2023/12/02 08:37:00;;;;;;;;;;;-0.60;99.90;;;;;;5114910;27;19975;-86
2023/12/02 08:39:26;;;;;;;;;;;-0.70;99.90;;;;;;5113034;27;20010;-84
2023/12/02 08:41:52;;;;;;;;;;;-0.60;99.90;;;;;;5115635;27;20027;-83
2023/12/02 08:44:17;;;;;;;;;;;-0.60;99.90;;;;;;5113097;27;20374;-87
2023/12/02 08:46:43;;;;;;;;;;;-0.60;99.90;;;;;;5114588;27;19935;-84
2023/12/02 08:49:08;;;;;;;;;;;-0.60;99.90;;;;;;5098159;27;20419;-84
2023/12/02 08:51:34;;;;;;;;;;;-0.50;99.90;;;;;;5112687;27;19930;-83
2023/12/02 08:54:00;;;;;;;;;;;-0.50;99.90;;;;;;5116218;27;19931;-82
2023/12/02 08:56:27;;;;;;;;;;;-0.50;99.90;;;;;;5107134;27;19924;-83
2023/12/02 08:58:53;;;;;;;;;;;-0.50;99.90;;;;;;5110922;27;19978;-85
2023/12/02 09:01:19;;;;;;;;;;;-0.50;99.90;;;;;;5112941;27;20305;-83
2023/12/02 09:03:44;;;;;;;;;;;-0.50;99.90;;;;;;5114456;27;19924;-82
2023/12/02 09:06:10;;;;;;;;;;;-0.40;99.90;;;;;;5109128;27;19924;-82
2023/12/02 09:08:35;;;;;;;;;;;-0.40;99.90;;;;;;5116944;27;20340;-83
2023/12/02 09:11:02;;;;;;;;;;;-0.40;99.90;;;;;;5110932;27;20382;-83
2023/12/02 09:13:40;;;;;;;;;;;-0.40;99.90;;;;;;5112570;27;20048;-82
2023/12/02 09:16:35;;;;;;;;;;;-0.40;99.90;;;;;;5110970;27;20274;-84
2023/12/02 09:19:04;;;;;;;;;;;-0.40;99.90;;;;;;5094707;27;19951;-83
2023/12/02 09:21:41;;;;;;;;;;;-0.40;99.90;;;;;;5109358;27;19928;-83
2023/12/02 09:24:25;;;;;;;;;;;-0.30;99.90;;;;;;5111916;27;19935;-83
2023/12/02 09:26:50;;;;;;;;;;;-0.30;99.90;;;;;;5110470;27;19924;-83
2023/12/02 09:29:16;;;;;;;;;;;-0.30;99.90;;;;;;5110442;27;19924;-85
2023/12/02 09:31:42;;;;;;;;;;;-0.30;99.90;;;;;;5112359;27;20405;-84
2023/12/02 09:34:28;;;;;;;;;;;-0.30;99.90;;;;;;5109032;27;19931;-84
2023/12/02 09:36:53;;;;;;;;;;;-0.20;99.90;;;;;;5112397;28;20362;-84
2023/12/02 09:39:19;;;;;;;;;;;-0.20;99.90;;;;;;5113622;27;19934;-83
2023/12/02 09:41:45;;;;;;;;;;;-0.30;99.90;;;;;;5114897;27;19931;-83
2023/12/02 09:44:21;;;;;;;;;;;-0.20;99.90;;;;;;5112590;28;19931;-82
2023/12/02 09:46:52;;;;;;;;;;;-0.20;99.90;;;;;;5113131;28;19966;-82
2023/12/02 09:49:42;;;;;;;;;;;-0.20;99.90;;;;;;5113547;28;19985;-82
2023/12/02 09:52:14;;;;;;;;;;;-0.10;99.90;;;;;;5106168;28;19924;-84
2023/12/02 09:54:45;;;;;;;;;;;-0.10;99.90;;;;;;5098407;28;19989;-82
2023/12/02 09:57:26;;;;;;;;;;;0.00;99.90;;;;;;5109134;28;19929;-84
2023/12/02 10:00:02;;;;;;;;;;;0.10;99.90;;;;;;5113191;28;19930;-83
2023/12/02 10:02:28;;;;;;;;;;;0.10;99.90;;;;;;5109247;28;19924;-85
2023/12/02 10:05:06;;;;;;;;;;;0.20;99.90;;;;;;5110893;28;20409;-84
2023/12/02 10:07:34;;;;;;;;;;;0.30;99.90;;;;;;5112395;28;20018;-84
2023/12/02 10:10:13;;;;;;;;;;;0.30;99.90;;;;;;5115857;27;19938;-86
2023/12/02 10:12:56;;;;;;;;;;;0.30;99.90;;;;;;5121428;27;20144;-86
2023/12/02 10:15:26;;;;;;;;;;;0.40;99.90;;;;;;5112841;27;19932;-84
2023/12/02 10:17:57;;;;;;;;;;;0.40;99.90;;;;;;5111880;27;19943;-83
2023/12/02 10:20:26;;;;;;;;;;;0.50;99.90;;;;;;5121715;27;19924;-83
2023/12/02 10:22:56;;;;;;;;;;;0.60;99.90;;;;;;5118023;27;20014;-83
2023/12/02 10:25:29;;;;;;;;;;;0.70;99.90;;;;;;5121105;27;19923;-83
2023/12/02 10:27:57;;;;;;;;;;;0.90;99.90;;;;;;5125114;27;19924;-83
2023/12/02 10:30:23;;;;;;;;;;;0.90;99.90;;;;;;5122340;27;19954;-83
2023/12/02 10:32:52;;;;;;;;;;;0.90;99.90;;;;;;5120746;27;19971;-85
2023/12/02 10:35:19;;;;;;;;;;;1.10;99.90;;;;;;5119354;27;19931;-84
2023/12/02 10:37:48;;;;;;;;;;;1.20;99.90;;;;;;5126925;27;20006;-84
2023/12/02 10:40:15;;;;;;;;;;;1.20;99.90;;;;;;5127198;27;19927;-83
2023/12/02 10:42:44;;;;;;;;;;;1.30;99.90;;;;;;5116831;27;19930;-83
2023/12/02 10:45:10;;;;;;;;;;;1.40;99.90;;;;;;5126727;27;20015;-82
2023/12/02 10:47:36;;;;;;;;;;;1.40;99.90;;;;;;5121441;27;19932;-84
2023/12/02 10:50:03;;;;;;;;;;;1.40;99.90;;;;;;5125325;27;19924;-84
2023/12/02 10:52:30;;;;;;;;;;;1.50;99.90;;;;;;5120058;27;20370;-83
2023/12/02 10:54:58;;;;;;;;;;;1.50;99.90;;;;;;5117265;27;19927;-82
2023/12/02 10:57:25;;;;;;;;;;;1.60;99.90;;;;;;5124113;27;19934;-83
2023/12/02 11:00:07;;;;;;;;;;;1.50;99.90;;;;;;5125119;27;19927;-84
2023/12/02 11:02:45;;;;;;;;;;;1.50;99.90;;;;;;5134213;27;19968;-82
2023/12/02 11:05:18;;;;;;;;;;;1.40;99.90;;;;;;5120599;27;20278;-84
2023/12/02 11:07:48;;;;;;;;;;;1.50;99.90;;;;;;5120455;27;19970;-83
2023/12/02 11:10:17;;;;;;;;;;;1.40;99.90;;;;;;5122322;27;19927;-83
2023/12/02 11:12:50;;;;;;;;;;;1.40;99.90;;;;;;5122991;27;19927;-85
2023/12/02 11:15:20;;;;;;;;;;;1.40;99.90;;;;;;5115057;27;20366;-88
2023/12/02 11:17:55;;;;;;;;;;;1.50;99.90;;;;;;5116981;27;20004;-83
2023/12/02 11:20:39;;;;;;;;;;;1.50;99.90;;;;;;5120824;27;19935;-83
2023/12/02 11:23:10;;;;;;;;;;;1.50;99.90;;;;;;5122913;27;19923;-84
2023/12/02 11:25:36;;;;;;;;;;;1.50;99.90;;;;;;5118304;27;19992;-85
2023/12/02 11:28:13;;;;;;;;;;;1.50;99.90;;;;;;5153461;27;20425;-84
2023/12/02 11:30:54;;;;;;;;;;;1.50;99.90;;;;;;5125582;27;19949;-83
2023/12/02 11:33:28;;;;;;;;;;;1.60;99.90;;;;;;5111181;27;20023;-84
2023/12/02 11:36:09;;;;;;;;;;;1.60;99.90;;;;;;5120826;27;19951;-87
2023/12/02 11:38:37;;;;;;;;;;;1.60;99.90;;;;;;5156325;27;19923;-84
2023/12/02 11:41:09;;;;;;;;;;;1.70;99.90;;;;;;5114799;27;19924;-84
2023/12/02 11:43:41;;;;;;;;;;;1.70;99.90;;;;;;5115268;27;20009;-83
2023/12/02 11:46:13;;;;;;;;;;;1.80;99.90;;;;;;5122711;27;19930;-84
2023/12/02 11:48:47;;;;;;;;;;;1.80;99.90;;;;;;5112507;27;19932;-84
2023/12/02 11:51:23;;;;;;;;;;;1.90;99.90;;;;;;5113972;27;19932;-84
2023/12/02 11:53:57;;;;;;;;;;;2.00;99.90;;;;;;5117510;27;20393;-84
2023/12/02 11:56:24;;;;;;;;;;;2.00;99.90;;;;;;5114724;27;20416;-84
2023/12/02 11:59:02;;;;;;;;;;;2.10;99.90;;;;;;5113735;27;20302;-82
2023/12/02 12:01:43;;;;;;;;;;;2.10;99.90;;;;;;5111088;27;20384;-86
2023/12/02 12:04:27;;;;;;;;;;;2.10;99.90;;;;;;5113572;27;20014;-84
2023/12/02 12:07:16;;;;;;;;;;;2.20;99.90;;;;;;5110833;27;19954;-83
2023/12/02 12:10:03;;;;;;;;;;;2.10;99.90;;;;;;5095928;28;20409;-83
2023/12/02 12:12:30;;;;;;;;;;;2.20;99.90;;;;;;5111246;27;20294;-83
2023/12/02 12:14:57;;;;;;;;;;;2.20;99.90;;;;;;5141551;27;19932;-85
2023/12/02 12:17:23;;;;;;;;;;;2.20;99.90;;;;;;5113199;27;19967;-84
2023/12/02 12:19:51;;;;;;;;;;;2.20;99.90;;;;;;5114147;28;20021;-84
2023/12/02 12:22:17;;;;;;;;;;;2.20;99.90;;;;;;5113627;27;19946;-83
2023/12/02 12:24:42;;;;;;;;;;;2.20;99.90;;;;;;5112590;27;20366;-82
2023/12/02 12:27:10;;;;;;;;;;;2.10;99.90;;;;;;5098945;27;20367;-83
2023/12/02 12:29:49;;;;;;;;;;;2.10;99.90;;;;;;5111411;27;20302;-83
2023/12/02 12:32:15;;;;;;;;;;;2.20;99.90;;;;;;5115122;27;19927;-84
2023/12/02 12:34:41;;;;;;;;;;;2.10;99.90;;;;;;5120649;27;20385;-83
2023/12/02 12:37:06;;;;;;;;;;;2.20;99.90;;;;;;5120700;27;20270;-83
2023/12/02 12:39:32;;;;;;;;;;;2.20;99.90;;;;;;5123600;27;19923;-83
2023/12/02 12:41:58;;;;;;;;;;;2.20;99.90;;;;;;5105879;27;20397;-84
2023/12/02 12:44:24;;;;;;;;;;;2.10;99.90;;;;;;5124089;27;20018;-83
2023/12/02 12:46:52;;;;;;;;;;;2.10;99.90;;;;;;5107782;28;19931;-83
2023/12/02 12:49:21;;;;;;;;;;;2.20;99.90;;;;;;5118763;27;20294;-83
2023/12/02 12:51:47;;;;;;;;;;;2.10;99.90;;;;;;5122642;27;20398;-82
2023/12/02 12:54:15;;;;;;;;;;;2.20;99.90;;;;;;5124172;27;19974;-87
2023/12/02 12:56:40;;;;;;;;;;;2.20;99.90;;;;;;5118364;27;19925;-84
2023/12/02 12:59:10;;;;;;;;;;;2.20;99.90;;;;;;5119539;27;19927;-84
2023/12/02 13:01:37;;;;;;;;;;;2.20;99.90;;;;;;5118873;27;19935;-87
2023/12/02 13:04:02;;;;;;;;;;;2.20;99.90;;;;;;5114761;27;19967;-85
2023/12/02 13:06:40;;;;;;;;;;;2.30;99.90;;;;;;5116462;27;20005;-83
2023/12/02 13:09:09;;;;;;;;;;;2.20;99.90;;;;;;5116444;27;20007;-83
2023/12/02 13:11:40;;;;;;;;;;;2.30;99.90;;;;;;5116640;28;19928;-84
2023/12/02 13:14:07;;;;;;;;;;;2.20;99.90;;;;;;5102421;28;19971;-84
2023/12/02 13:16:35;;;;;;;;;;;2.20;99.90;;;;;;5106665;28;19924;-84
2023/12/02 13:19:01;;;;;;;;;;;2.20;99.90;;;;;;5123766;27;19931;-89
2023/12/02 13:21:28;;;;;;;;;;;2.20;99.90;;;;;;5113253;28;20278;-83
2023/12/02 13:23:55;;;;;;;;;;;2.30;99.90;;;;;;5111408;28;19931;-84
2023/12/02 13:26:25;;;;;;;;;;;2.30;99.90;;;;;;5147150;27;20362;-84
2023/12/02 13:28:51;;;;;;;;;;;2.30;99.90;;;;;;5100726;28;19935;-84
2023/12/02 13:31:17;;;;;;;;;;;2.30;99.90;;;;;;5096680;28;19923;-84
2023/12/02 13:33:54;;;;;;;;;;;2.30;99.90;;;;;;5112699;28;19928;-84
2023/12/02 13:36:28;;;;;;;;;;;2.30;99.90;;;;;;5109343;28;19931;-84
2023/12/02 13:39:00;;;;;;;;;;;2.30;99.90;;;;;;5103951;28;19967;-84
2023/12/02 13:41:31;;;;;;;;;;;2.30;99.90;;;;;;5113231;28;19948;-84
2023/12/02 13:43:58;;;;;;;;;;;2.30;99.90;;;;;;5113177;28;19924;-84
2023/12/02 13:46:32;;;;;;;;;;;2.30;99.90;;;;;;5111930;28;19927;-84
2023/12/02 13:48:57;;;;;;;;;;;2.30;99.90;;;;;;5108718;28;19935;-84
2023/12/02 13:51:28;;;;;;;;;;;2.20;99.90;;;;;;5134912;27;20127;-83
2023/12/02 13:54:29;;;;;;;;;;;2.30;99.90;;;;;;5109487;28;20481;-83
2023/12/02 13:56:57;;;;;;;;;;;2.20;99.90;;;;;;5041789;28;19928;-85
2023/12/02 13:59:30;;;;;;;;;;;2.20;99.90;;;;;;5084734;28;19931;-83
2023/12/02 14:02:15;;;;;;;;;;;2.30;99.90;;;;;;5124984;28;19932;-83
2023/12/02 14:04:52;;;;;;;;;;;2.20;99.90;;;;;;5121829;28;19975;-84
2023/12/02 14:07:22;;;;;;;;;;;2.20;99.90;;;;;;5122294;28;19969;-83
2023/12/02 14:09:50;;;;;;;;;;;2.20;99.90;;;;;;5117938;28;20011;-83
2023/12/02 14:12:48;;;;;;;;;;;2.30;99.90;;;;;;5125674;27;20406;-83
2023/12/02 14:15:16;;;;;;;;;;;2.20;99.90;;;;;;5089184;28;19931;-83
2023/12/02 14:17:48;;;;;;;;;;;2.20;99.90;;;;;;5114487;27;19932;-85
2023/12/02 14:20:14;;;;;;;;;;;2.10;99.90;;;;;;5120751;28;20386;-83
2023/12/02 14:23:00;;;;;;;;;;;2.20;99.90;;;;;;5129741;28;19924;-83
2023/12/02 14:25:33;;;;;;;;;;;2.10;99.90;;;;;;5119939;28;19924;-82